createdAt,value
2022-10-19T00:01:15.734Z,103054.06
2022-10-19T00:03:43.337Z,103051.56
2022-10-19T00:06:30.975Z,103050.69
2022-10-19T00:09:00.286Z,103053.38
2022-10-19T00:11:35.245Z,103063.16
2022-10-19T00:14:02.313Z,103059.81
2022-10-19T00:16:31.479Z,103057.28
2022-10-19T00:19:24.448Z,103051.47
2022-10-19T00:24:22.538Z,103048.94
2022-10-19T00:26:50.013Z,103037.69
2022-10-19T00:29:16.924Z,103046.19
2022-10-19T00:31:51.028Z,103044.72
2022-10-19T00:34:17.977Z,103040.53
2022-10-19T00:36:44.648Z,103045.50
2022-10-19T00:39:13.707Z,103048.56
2022-10-19T00:41:41.071Z,103042.72
2022-10-19T00:44:30.073Z,103038.53
2022-10-19T00:47:03.368Z,103040.41
2022-10-19T00:49:37.989Z,103040.78
2022-10-19T00:52:15.076Z,103038.28
2022-10-19T00:54:43.935Z,103039.50
2022-10-19T00:57:11.072Z,103038.47
2022-10-19T00:59:38.652Z,103039.88
2022-10-19T01:02:12.436Z,103042.94
2022-10-19T01:04:42.171Z,103043.59
2022-10-19T01:07:09.214Z,103044.19
2022-10-19T01:09:35.697Z,103037.66
2022-10-19T01:12:17.269Z,103037.41
2022-10-19T01:15:11.591Z,103031.38
2022-10-19T01:17:54.592Z,103027.41
2022-10-19T01:21:15.256Z,103027.97
2022-10-19T01:24:18.629Z,103018.41
2022-10-19T01:27:16.416Z,103028.06
2022-10-19T01:30:06.320Z,103009.13
2022-10-19T01:33:05.195Z,103012.84
2022-10-19T01:35:43.570Z,103017.41
2022-10-19T01:38:24.736Z,103012.00
2022-10-19T01:41:01.392Z,103006.16
2022-10-19T01:43:40.111Z,103004.88
2022-10-19T01:46:13.407Z,103008.38
2022-10-19T01:48:56.067Z,103005.91
2022-10-19T01:51:48.109Z,103008.78
2022-10-19T01:54:16.914Z,103001.91
2022-10-19T01:56:45.248Z,103011.41
2022-10-19T01:59:13.975Z,103007.03
2022-10-19T02:01:45.092Z,103003.03
2022-10-19T02:04:15.604Z,103007.78
2022-10-19T02:06:42.344Z,103013.16
2022-10-19T02:09:08.893Z,103014.19
2022-10-19T02:11:37.619Z,103011.66
2022-10-19T02:14:13.328Z,103012.88
2022-10-19T02:17:17.067Z,103013.25
2022-10-19T02:19:44.036Z,103002.84
2022-10-19T02:22:13.264Z,103004.53
2022-10-19T02:24:39.981Z,103002.03
2022-10-19T02:27:08.705Z,102999.72
2022-10-19T02:29:37.142Z,103008.63
2022-10-19T02:32:04.424Z,103003.59
2022-10-19T02:34:31.252Z,103003.97
2022-10-19T02:36:57.792Z,102994.44
2022-10-19T02:39:26.364Z,103004.34
2022-10-19T02:42:09.956Z,103007.41
2022-10-19T02:44:50.197Z,102993.66
2022-10-19T02:47:25.645Z,102990.31
2022-10-19T02:49:52.765Z,102989.03
2022-10-19T02:52:19.548Z,102996.63
2022-10-19T02:54:46.471Z,102990.38
2022-10-19T02:57:17.163Z,102987.53
2022-10-19T02:59:52.740Z,102985.00
2022-10-19T03:02:20.530Z,102983.31
2022-10-19T03:07:20.927Z,102989.44
2022-10-19T03:09:47.376Z,102985.28
2022-10-19T03:12:14.439Z,102971.97
2022-10-19T03:14:40.887Z,102978.38
2022-10-19T03:17:07.305Z,102978.38
2022-10-19T03:19:35.377Z,102968.84
2022-10-19T03:22:02.246Z,102968.38
2022-10-19T03:24:30.279Z,102965.28
2022-10-19T03:26:57.144Z,102963.25
2022-10-19T03:29:23.490Z,102957.03
2022-10-19T03:31:53.072Z,102957.03
2022-10-19T03:34:19.416Z,102961.97
2022-10-19T03:36:45.876Z,102962.16
2022-10-19T03:39:19.416Z,102960.69
2022-10-19T03:41:45.957Z,102955.47
2022-10-19T03:44:20.452Z,102961.88
2022-10-19T03:46:46.940Z,102962.44
2022-10-19T03:49:14.932Z,102980.25
2022-10-19T03:51:41.641Z,102970.97
2022-10-19T03:54:17.061Z,102961.88
2022-10-19T03:56:43.637Z,102957.69
2022-10-19T03:59:15.808Z,102959.09
2022-10-19T04:01:45.641Z,102963.16
2022-10-19T04:04:14.719Z,102961.50
2022-10-19T04:06:43.425Z,102971.25
2022-10-19T04:09:12.930Z,102970.75
2022-10-19T04:11:39.679Z,102968.25
2022-10-19T04:14:06.388Z,102965.28
2022-10-19T04:16:47.326Z,102965.66
2022-10-19T04:19:15.128Z,102966.81
2022-10-19T04:21:50.797Z,102965.00
2022-10-19T04:24:18.627Z,102968.03
2022-10-19T04:26:50.400Z,102962.66
2022-10-19T04:29:30.905Z,102965.16
2022-10-19T04:32:19.376Z,102965.53
2022-10-19T04:34:45.888Z,102971.91
2022-10-19T04:37:23.589Z,102970.91
2022-10-19T04:40:25.609Z,102967.56
2022-10-19T04:43:22.315Z,102965.44
2022-10-19T04:45:48.753Z,102960.41
2022-10-19T04:48:18.201Z,102963.25
2022-10-19T04:50:44.625Z,102969.84
2022-10-19T04:53:19.334Z,102969.84
2022-10-19T04:55:45.813Z,102967.38
2022-10-19T04:58:12.210Z,102971.88
2022-10-19T05:00:39.103Z,102973.56
2022-10-19T05:03:05.551Z,102969.03
2022-10-19T05:05:35.516Z,102973.56
2022-10-19T05:08:11.437Z,102970.22
2022-10-19T05:11:04.988Z,102973.94
2022-10-19T05:13:35.328Z,102967.22
2022-10-19T05:16:04.428Z,102963.88
2022-10-19T05:18:31.125Z,102961.41
2022-10-19T05:21:14.944Z,102956.84
2022-10-19T05:23:46.560Z,102958.50
2022-10-19T05:26:19.334Z,102957.69
2022-10-19T05:29:04.847Z,102954.34
2022-10-19T05:31:47.753Z,102946.44
2022-10-19T05:34:40.060Z,102947.81
2022-10-19T05:37:06.476Z,102937.41
2022-10-19T05:39:32.936Z,102934.72
2022-10-19T05:41:59.385Z,102945.84
2022-10-19T05:44:25.868Z,102944.00
2022-10-19T05:46:52.753Z,102945.84
2022-10-19T05:49:35.576Z,102951.06
2022-10-19T05:52:03.377Z,102955.41
2022-10-19T05:54:29.808Z,102952.88
2022-10-19T05:56:56.401Z,102949.19
2022-10-19T05:59:39.162Z,102943.34
2022-10-19T06:02:06.492Z,102950.25
2022-10-19T06:04:43.035Z,102949.44
2022-10-19T06:07:09.572Z,102954.81
2022-10-19T06:09:50.361Z,102946.91
2022-10-19T06:12:24.243Z,102946.44
2022-10-19T06:15:14.492Z,102942.25
2022-10-19T06:17:40.972Z,102935.22
2022-10-19T06:20:19.603Z,102944.13
2022-10-19T06:22:46.146Z,102942.25
2022-10-19T06:25:15.494Z,102942.25
2022-10-19T06:27:44.682Z,102952.66
2022-10-19T06:30:11.584Z,102961.38
2022-10-19T06:32:38.026Z,102963.06
2022-10-19T06:35:04.820Z,102958.34
2022-10-19T06:37:56.270Z,102954.81
2022-10-19T06:40:27.380Z,102952.28
2022-10-19T06:43:02.601Z,102956.00
2022-10-19T06:46:08.851Z,102956.50
2022-10-19T06:49:03.908Z,102961.38
2022-10-19T06:57:58.072Z,102951.22
2022-10-19T07:00:30.300Z,102940.09
2022-10-19T07:03:14.796Z,102944.75
2022-10-19T07:06:39.178Z,102947.38
2022-10-19T07:10:02.959Z,102933.50
2022-10-19T07:13:04.730Z,102942.16
2022-10-19T07:16:05.714Z,102932.13
2022-10-19T07:18:40.895Z,102937.63
2022-10-19T07:21:22.253Z,102940.69
2022-10-19T07:23:54.722Z,102936.72
2022-10-19T07:26:29.168Z,102944.03
2022-10-19T07:29:05.890Z,102943.94
2022-10-19T07:31:44.770Z,102949.91
2022-10-19T07:34:17.460Z,102936.34
2022-10-19T07:36:48.485Z,102941.63
2022-10-19T07:39:32.991Z,102936.78
2022-10-19T07:42:12.873Z,102938.34
2022-10-19T07:44:58.331Z,102946.31
2022-10-19T07:47:25.643Z,102952.03
2022-10-19T07:49:54.078Z,102951.09
2022-10-19T07:52:21.602Z,102950.97
2022-10-19T07:54:49.927Z,102950.00
2022-10-19T07:57:16.983Z,102951.72
2022-10-19T07:59:43.992Z,102948.72
2022-10-19T08:02:30.818Z,102950.25
2022-10-19T08:05:10.526Z,102947.22
2022-10-19T08:07:38.008Z,102945.22
2022-10-19T08:10:05.478Z,102945.53
2022-10-19T08:12:32.463Z,102947.69
2022-10-19T08:14:59.289Z,102941.75
2022-10-19T08:17:26.363Z,102940.16
2022-10-19T08:19:53.035Z,102943.97
2022-10-19T08:22:19.548Z,102942.56
2022-10-19T08:24:46.060Z,102933.03
2022-10-19T08:27:17.658Z,102940.16
2022-10-19T08:29:44.059Z,102939.59
2022-10-19T08:32:10.793Z,102942.38
2022-10-19T08:34:59.102Z,102935.31
2022-10-19T08:37:40.669Z,102932.84
2022-10-19T08:40:31.703Z,102926.41
2022-10-19T08:43:38.190Z,102930.38
2022-10-19T08:46:37.654Z,102918.69
2022-10-19T08:49:04.501Z,102910.34
2022-10-19T08:51:38.431Z,102912.00
2022-10-19T08:54:16.188Z,102910.31
2022-10-19T08:57:04.216Z,102901.53
2022-10-19T09:00:06.649Z,102902.34
2022-10-19T09:03:11.848Z,102896.44
2022-10-19T09:05:44.819Z,102892.63
2022-10-19T09:08:17.453Z,102895.53
2022-10-19T09:10:49.036Z,102881.53
2022-10-19T09:13:46.969Z,102887.97
2022-10-19T09:16:21.640Z,102879.63
2022-10-19T09:18:49.629Z,102871.88
2022-10-19T09:21:30.164Z,102870.81
2022-10-19T09:24:18.029Z,102871.66
2022-10-19T09:27:03.064Z,102871.66
2022-10-19T09:29:38.652Z,102877.91
2022-10-19T09:32:30.567Z,102887.09
2022-10-19T09:35:02.440Z,102884.38
2022-10-19T09:37:32.139Z,102873.75
2022-10-19T09:39:59.782Z,102876.47
2022-10-19T09:42:33.666Z,102875.41
2022-10-19T09:45:30.507Z,102869.34
2022-10-19T09:48:12.765Z,102865.16
2022-10-19T09:50:43.672Z,102856.56
2022-10-19T09:53:19.720Z,102854.03
2022-10-19T09:56:17.011Z,102851.47
2022-10-19T09:58:50.661Z,102856.69
2022-10-19T10:01:43.177Z,102858.94
2022-10-19T10:04:18.335Z,102851.44
2022-10-19T10:06:56.960Z,102860.19
2022-10-19T10:09:29.080Z,102853.47
2022-10-19T10:12:42.418Z,102856.41
2022-10-19T10:15:39.861Z,102847.81
2022-10-19T10:18:28.120Z,102841.78
2022-10-19T10:21:12.574Z,102841.34
2022-10-19T10:23:40.397Z,102843.00
2022-10-19T10:26:19.592Z,102840.91
2022-10-19T10:28:48.955Z,102848.00
2022-10-19T10:31:19.760Z,102848.00
2022-10-19T10:33:54.703Z,102855.09
2022-10-19T10:36:27.709Z,102841.06
2022-10-19T10:39:16.270Z,102843.09
2022-10-19T10:41:48.276Z,102836.63
2022-10-19T10:44:21.710Z,102829.94
2022-10-19T10:47:06.803Z,102825.13
2022-10-19T10:49:44.571Z,102823.00
2022-10-19T10:52:14.413Z,102818.19
2022-10-19T10:54:41.006Z,102825.88
2022-10-19T11:04:16.828Z,102798.88
2022-10-19T11:07:00.911Z,102790.50
2022-10-19T11:09:44.748Z,102785.00
2022-10-19T11:12:19.251Z,102782.66
2022-10-19T11:14:59.181Z,102773.22
2022-10-19T11:17:30.261Z,102778.19
2022-10-19T11:20:07.012Z,102764.63
2022-10-19T11:22:37.927Z,102763.13
2022-10-19T11:25:35.913Z,102765.16
2022-10-19T11:28:34.603Z,102761.16
2022-10-19T11:31:21.134Z,102749.81
2022-10-19T11:34:23.692Z,102741.22
2022-10-19T11:37:16.269Z,102731.56
2022-10-19T11:40:27.508Z,102739.03
2022-10-19T11:43:12.585Z,102726.06
2022-10-19T11:46:39.589Z,102728.91
2022-10-19T11:49:50.846Z,102709.19
2022-10-19T11:52:46.516Z,102715.22
2022-10-19T11:55:53.911Z,102705.28
2022-10-19T12:01:56.601Z,102697.66
2022-10-19T12:04:51.336Z,102696.59
2022-10-19T12:07:38.584Z,102684.66
2022-10-19T12:10:29.385Z,102678.63
2022-10-19T12:13:08.828Z,102674.25
2022-10-19T12:15:55.145Z,102673.19
2022-10-19T12:18:35.948Z,102659.00
2022-10-19T12:21:09.100Z,102657.34
2022-10-19T12:23:39.132Z,102658.75
2022-10-19T12:26:14.368Z,102645.75
2022-10-19T12:28:46.877Z,102646.94
2022-10-19T12:31:14.253Z,102638.56
2022-10-19T12:33:59.330Z,102644.81
2022-10-19T12:36:58.161Z,102633.94
2022-10-19T12:39:53.741Z,102626.84
2022-10-19T12:42:33.536Z,102619.53
2022-10-19T12:45:31.035Z,102618.00
2022-10-19T12:48:22.125Z,102607.94
2022-10-19T12:51:05.829Z,102605.47
2022-10-19T12:53:38.132Z,102594.34
2022-10-19T12:56:26.945Z,102588.69
2022-10-19T12:59:02.177Z,102588.69
2022-10-19T13:01:44.079Z,102577.81
2022-10-19T13:04:21.211Z,102575.69
2022-10-19T13:06:57.824Z,102556.19
2022-10-19T13:09:41.975Z,102556.34
2022-10-19T13:12:22.144Z,102559.66
2022-10-19T13:15:02.077Z,102553.75
2022-10-19T13:17:35.025Z,102552.66
2022-10-19T13:20:15.772Z,102553.25
2022-10-19T13:22:47.370Z,102548.88
2022-10-19T13:25:40.448Z,102543.56
2022-10-19T13:28:15.133Z,102538.94
2022-10-19T13:30:42.260Z,102532.16
2022-10-19T13:33:34.973Z,102530.03
2022-10-19T13:36:04.334Z,102533.34
2022-10-19T13:38:43.465Z,102521.66
2022-10-19T13:41:40.017Z,102522.47
2022-10-19T13:44:45.568Z,102525.78
2022-10-19T13:47:33.677Z,102527.44
2022-10-19T13:50:29.489Z,102520.94
2022-10-19T13:53:31.270Z,102512.53
2022-10-19T13:56:26.476Z,102510.63
2022-10-19T13:59:20.653Z,102503.53
2022-10-19T14:02:20.912Z,102506.03
2022-10-19T14:05:29.243Z,102506.03
2022-10-19T14:08:04.922Z,102516.19
2022-10-19T14:10:33.084Z,102516.44
2022-10-19T14:13:14.359Z,102518.31
2022-10-19T14:15:53.925Z,102504.97
2022-10-19T14:18:29.120Z,102512.28
2022-10-19T14:21:05.055Z,102513.94
2022-10-19T14:23:34.230Z,102520.22
2022-10-19T14:26:07.402Z,102513.94
2022-10-19T14:28:34.658Z,102523.16
2022-10-19T14:31:04.782Z,102515.00
2022-10-19T14:33:38.707Z,102516.06
2022-10-19T14:36:07.952Z,102515.00
2022-10-19T14:38:40.372Z,102507.31
2022-10-19T14:41:27.765Z,102504.59
2022-10-19T14:43:56.076Z,102507.31
2022-10-19T14:46:28.813Z,102504.84
2022-10-19T14:49:01.337Z,102511.13
2022-10-19T14:51:45.525Z,102503.53
2022-10-19T14:54:36.445Z,102498.69
2022-10-19T14:57:08.428Z,102488.88
2022-10-19T14:59:52.338Z,102491.38
2022-10-19T15:02:34.043Z,102481.78
2022-10-19T15:05:03.241Z,102465.94
2022-10-19T15:07:34.290Z,102465.94
2022-10-19T15:10:03.740Z,102463.47
2022-10-19T15:12:38.461Z,102462.63
2022-10-19T15:15:28.210Z,102453.06
2022-10-19T15:18:30.176Z,102449.75
2022-10-19T15:21:14.304Z,102445.06
2022-10-19T15:23:46.814Z,102451.56
2022-10-19T15:26:18.561Z,102441.97
2022-10-19T15:28:46.114Z,102435.13
2022-10-19T15:31:19.892Z,102437.00
2022-10-19T15:34:22.925Z,102419.88
2022-10-19T15:37:01.422Z,102418.22
2022-10-19T15:39:42.112Z,102420.59
2022-10-19T15:42:49.008Z,102417.28
2022-10-19T15:45:35.983Z,102416.66
2022-10-19T15:48:26.177Z,102428.50
2022-10-19T15:50:56.921Z,102423.22
2022-10-19T15:53:23.731Z,102418.72
2022-10-19T15:55:50.241Z,102423.78
2022-10-19T15:58:17.949Z,102412.59
2022-10-19T16:00:52.837Z,102402.09
2022-10-19T16:03:38.513Z,102393.94
2022-10-19T16:06:38.000Z,102396.44
2022-10-19T16:09:04.773Z,102393.13
2022-10-19T16:11:32.325Z,102391.47
2022-10-19T16:14:09.174Z,102388.38
2022-10-19T16:16:35.828Z,102377.41
2022-10-19T16:19:02.520Z,102376.47
2022-10-19T16:21:32.878Z,102376.34
2022-10-19T16:24:46.166Z,102372.69
2022-10-19T16:27:39.693Z,102369.84
2022-10-19T16:30:34.320Z,102364.06
2022-10-19T16:33:00.860Z,102370.78
2022-10-19T16:35:46.763Z,102372.56
2022-10-19T16:38:13.675Z,102378.69
2022-10-19T16:40:40.132Z,102372.69
2022-10-19T16:43:07.700Z,102382.72
2022-10-19T16:45:34.300Z,102376.97
2022-10-19T16:48:05.910Z,102365.72
2022-10-19T16:50:32.405Z,102367.03
2022-10-19T16:53:47.805Z,102364.19
2022-10-19T16:56:14.346Z,102362.53
2022-10-19T16:58:40.928Z,102366.31
2022-10-19T17:01:19.633Z,102350.50
2022-10-19T17:03:48.512Z,102345.06
2022-10-19T17:06:16.249Z,102341.50
2022-10-19T17:11:35.342Z,102340.56
2022-10-19T17:14:19.353Z,102336.81
2022-10-19T17:16:45.847Z,102331.84
2022-10-19T17:19:17.435Z,102337.75
2022-10-19T17:21:43.906Z,102335.25
2022-10-19T17:24:21.168Z,102330.28
2022-10-19T17:26:52.329Z,102322.38
2022-10-19T17:29:25.007Z,102326.97
2022-10-19T17:32:04.745Z,102329.47
2022-10-19T17:34:41.370Z,102325.09
2022-10-19T17:37:44.963Z,102321.31
2022-10-19T17:40:11.786Z,102317.44
2022-10-19T17:42:38.243Z,102328.75
2022-10-19T17:45:04.973Z,102328.75
2022-10-19T17:47:38.228Z,102323.53
2022-10-19T17:50:05.347Z,102315.28
2022-10-19T17:52:44.171Z,102317.63
2022-10-19T17:55:27.226Z,102319.75
2022-10-19T17:58:09.032Z,102312.69
2022-10-19T18:00:39.319Z,102308.56
2022-10-19T18:03:09.995Z,102310.22
2022-10-19T18:06:12.679Z,102309.16
2022-10-19T18:08:42.542Z,102314.81
2022-10-19T18:11:09.169Z,102317.03
2022-10-19T18:16:12.721Z,102329.19
2022-10-19T18:18:41.600Z,102329.41
2022-10-19T18:21:11.705Z,102338.63
2022-10-19T18:23:40.634Z,102329.88
2022-10-19T18:26:10.475Z,102325.31
2022-10-19T18:28:37.223Z,102324.91
2022-10-19T18:31:16.663Z,102322.47
2022-10-19T18:33:48.477Z,102321.03
2022-10-19T18:36:15.515Z,102316.28
2022-10-19T18:38:42.309Z,102304.00
2022-10-19T18:41:16.153Z,102312.38
2022-10-19T18:43:42.720Z,102305.50
2022-10-19T18:46:15.412Z,102301.38
2022-10-19T18:48:43.749Z,102297.84
2022-10-19T18:51:23.577Z,102278.84
2022-10-19T18:53:50.409Z,102277.19
2022-10-19T18:56:29.481Z,102276.97
2022-10-19T18:58:56.884Z,102275.94
2022-10-19T19:01:26.825Z,102277.78
2022-10-19T19:03:56.087Z,102278.84
2022-10-19T19:06:59.727Z,102278.50
2022-10-19T19:09:26.182Z,102288.97
2022-10-19T19:11:54.289Z,102284.00
2022-10-19T19:14:21.165Z,102282.34
2022-10-19T19:16:47.981Z,102267.41
2022-10-19T19:19:25.817Z,102260.78
2022-10-19T19:21:52.453Z,102253.09
2022-10-19T19:24:21.873Z,102255.00
2022-10-19T19:26:51.579Z,102257.72
2022-10-19T19:29:18.955Z,102253.81
2022-10-19T19:31:45.514Z,102244.25
2022-10-19T19:34:38.360Z,102224.47
2022-10-19T19:37:22.227Z,102223.63
2022-10-19T19:39:48.666Z,102218.06
2022-10-19T19:42:15.534Z,102207.47
2022-10-19T19:44:50.879Z,102202.28
2022-10-19T19:47:31.543Z,102197.69
2022-10-19T19:49:57.975Z,102187.91
2022-10-19T19:52:34.898Z,102186.72
2022-10-19T19:55:04.955Z,102181.75
2022-10-19T19:57:31.390Z,102180.09
2022-10-19T19:59:57.797Z,102175.75
2022-10-19T20:02:37.112Z,102170.31
2022-10-19T20:05:04.131Z,102162.66
2022-10-19T20:07:30.620Z,102172.44
2022-10-19T20:09:57.446Z,102170.78
2022-10-19T20:12:26.074Z,102170.19
2022-10-19T20:15:18.844Z,102158.63
2022-10-19T20:17:45.315Z,102152.81
2022-10-19T20:20:13.659Z,102149.78
2022-10-19T20:22:40.258Z,102146.81
2022-10-19T20:25:07.010Z,102151.63
2022-10-19T20:27:36.830Z,102143.50
2022-10-19T20:30:04.179Z,102156.25
2022-10-19T20:32:38.224Z,102149.38
2022-10-19T20:35:05.144Z,102146.94
2022-10-19T20:37:31.634Z,102134.69
2022-10-19T20:39:58.082Z,102132.78
2022-10-19T20:42:24.700Z,102122.78
2022-10-19T20:44:55.490Z,102120.75
2022-10-19T20:47:38.173Z,102120.75
2022-10-19T20:50:07.469Z,102113.69
2022-10-19T20:52:36.940Z,102112.03
2022-10-19T20:55:04.078Z,102108.28
2022-10-19T20:57:30.491Z,102107.69
2022-10-19T20:59:56.933Z,102104.97
2022-10-19T21:02:23.464Z,102112.50
2022-10-19T21:04:50.997Z,102097.31
2022-10-19T21:07:17.387Z,102105.91
2022-10-19T21:09:43.992Z,102101.53
2022-10-19T21:12:10.437Z,102100.94
2022-10-19T21:14:37.250Z,102104.69
2022-10-19T21:17:12.978Z,102098.09
2022-10-19T21:19:45.759Z,102097.88
2022-10-19T21:22:12.775Z,102097.41
2022-10-19T21:24:39.697Z,102099.41
2022-10-19T21:27:08.993Z,102099.00
2022-10-19T21:29:37.190Z,102098.19
2022-10-19T21:32:18.821Z,102092.78
2022-10-19T21:34:45.264Z,102093.00
2022-10-19T21:37:29.157Z,102084.53
2022-10-19T21:39:59.595Z,102086.84
2022-10-19T21:42:40.302Z,102085.06
2022-10-19T21:45:36.270Z,102086.34
2022-10-19T21:48:21.861Z,102083.50
2022-10-19T21:50:53.378Z,102083.97
2022-10-19T21:53:44.034Z,102082.31
2022-10-19T21:56:10.445Z,102074.44
2022-10-19T21:58:48.230Z,102074.88
2022-10-19T22:01:16.418Z,102068.63
2022-10-19T22:03:43.033Z,102074.03
2022-10-19T22:06:09.395Z,102059.09
2022-10-19T22:08:43.440Z,102057.22
2022-10-19T22:11:13.545Z,102051.00
2022-10-19T22:13:57.189Z,102046.41
2022-10-19T22:16:32.754Z,102040.97
2022-10-19T22:18:59.241Z,102037.47
2022-10-19T22:21:39.132Z,102041.44
2022-10-19T22:24:18.687Z,102038.38
2022-10-19T22:26:47.484Z,102043.41
2022-10-19T22:29:18.323Z,102044.69
2022-10-19T22:31:46.776Z,102039.75
2022-10-19T22:34:17.375Z,102032.28
2022-10-19T22:36:44.914Z,102030.28
2022-10-19T22:39:11.867Z,102019.09
2022-10-19T22:41:50.610Z,102008.25
2022-10-19T22:44:44.993Z,102001.59
2022-10-19T22:47:27.640Z,102007.81
2022-10-19T22:50:24.037Z,102001.59
2022-10-19T22:53:07.729Z,101998.50
2022-10-19T22:55:35.209Z,101991.22
2022-10-19T23:01:10.618Z,101974.91
2022-10-19T23:03:39.319Z,101966.56
2022-10-19T23:06:11.484Z,101974.69
2022-10-19T23:08:39.094Z,101974.69
2022-10-19T23:11:05.722Z,101975.75
2022-10-19T23:13:59.024Z,101969.75
2022-10-19T23:16:25.497Z,101969.94
2022-10-19T23:18:57.017Z,101967.50
2022-10-19T23:21:23.556Z,101974.56
2022-10-19T23:23:55.816Z,101960.44
2022-10-19T23:26:22.297Z,101956.66
2022-10-19T23:28:50.141Z,101957.72
2022-10-19T23:31:34.784Z,101954.19
2022-10-19T23:34:09.308Z,101953.44
2022-10-19T23:36:41.755Z,101941.81
2022-10-19T23:39:08.127Z,101939.31
2022-10-19T23:42:06.492Z,101928.97
2022-10-19T23:44:39.102Z,101929.81
2022-10-19T23:47:05.453Z,101921.25
2022-10-19T23:49:37.899Z,101929.34
2022-10-19T23:52:19.718Z,101924.41
2022-10-19T23:54:46.088Z,101916.28
2022-10-19T23:57:12.470Z,101912.97
2022-10-19T23:59:38.830Z,101910.25
